Time;durP1;ratioP1;P1;durP2;ratioP2;P2;SDS_P1;SDS_P2;PMS_P1;PMS_P2;Temp;Humidity;BMP_temperature;BMP_pressure;BME280_temperature;BME280_humidity;BME280_pressure;Samples;Min_cycle;Max_cycle;Signal;HPM_P1;HPM_P2
2023/04/10 00:01:26;;;;;;;3.75;3.45;;;8.20;99.90;;;;;;5102858;28;20251;-71
2023/04/10 00:03:53;;;;;;;4.03;3.78;;;8.10;99.90;;;;;;5107048;28;20311;-74
2023/04/10 00:06:20;;;;;;;4.35;4.05;;;8.00;99.90;;;;;;5099739;28;20197;-73
2023/04/10 00:08:47;;;;;;;4.45;4.15;;;8.00;99.90;;;;;;5105013;28;20678;-76
2023/04/10 00:11:15;;;;;;;4.43;4.13;;;8.00;99.90;;;;;;5100967;28;20259;-72
2023/04/10 00:13:42;;;;;;;4.68;4.20;;;8.00;99.90;;;;;;5103980;28;20231;-72
2023/04/10 00:16:09;;;;;;;4.32;4.03;;;8.00;99.90;;;;;;5099055;28;20201;-73
2023/04/10 00:18:36;;;;;;;5.40;4.97;;;8.00;99.90;;;;;;5101804;28;20300;-73
2023/04/10 00:21:03;;;;;;;4.80;4.50;;;8.00;99.90;;;;;;5101271;28;20699;-71
2023/04/10 00:23:33;;;;;;;4.65;4.25;;;8.00;99.90;;;;;;5104692;28;20212;-71
2023/04/10 00:26:00;;;;;;;4.45;4.15;;;8.00;99.90;;;;;;5104016;28;20228;-71
2023/04/10 00:28:28;;;;;;;4.28;4.00;;;8.00;99.90;;;;;;5104366;28;20711;-70
2023/04/10 00:30:55;;;;;;;4.25;3.95;;;7.90;99.90;;;;;;5101681;28;20247;-70
2023/04/10 00:33:22;;;;;;;5.03;4.63;;;7.90;99.90;;;;;;5103315;28;20279;-72
2023/04/10 00:35:49;;;;;;;4.20;3.90;;;7.90;99.90;;;;;;5100922;28;20291;-69
2023/04/10 00:38:16;;;;;;;4.35;4.05;;;7.90;99.90;;;;;;5101295;28;20857;-73
2023/04/10 00:40:43;;;;;;;4.07;3.78;;;7.90;99.90;;;;;;5096213;28;20225;-71
2023/04/10 00:43:10;;;;;;;4.72;4.43;;;7.90;99.90;;;;;;5100345;28;20212;-70
2023/04/10 00:45:39;;;;;;;4.15;3.85;;;7.90;99.90;;;;;;5102125;28;20697;-71
2023/04/10 00:48:06;;;;;;;4.05;3.75;;;7.80;99.90;;;;;;5103071;28;20810;-73
2023/04/10 00:50:33;;;;;;;3.85;3.55;;;7.90;99.90;;;;;;5102916;28;20209;-70
2023/04/10 00:53:00;;;;;;;3.67;3.47;;;7.90;99.90;;;;;;5099362;28;20224;-71
2023/04/10 00:55:27;;;;;;;3.75;3.53;;;7.90;99.90;;;;;;5101199;28;20274;-72
2023/04/10 00:57:56;;;;;;;4.60;4.30;;;7.90;99.90;;;;;;5099810;28;20228;-73
2023/04/10 01:00:23;;;;;;;4.07;3.85;;;7.80;99.90;;;;;;5097517;28;20206;-74
2023/04/10 01:02:51;;;;;;;4.40;4.10;;;7.80;99.90;;;;;;5100583;28;20254;-71
2023/04/10 01:05:18;;;;;;;4.05;3.75;;;7.80;99.90;;;;;;5098694;28;20256;-74
2023/04/10 01:07:58;;;;;;;3.80;3.50;;;7.80;99.90;;;;;;5099148;28;20221;-74
2023/04/10 01:10:34;;;;;;;4.07;3.78;;;7.80;99.90;;;;;;5104361;28;20487;-73
2023/04/10 01:13:08;;;;;;;4.57;4.28;;;7.80;99.90;;;;;;5099671;28;20213;-71
2023/04/10 01:15:43;;;;;;;4.30;4.00;;;7.70;99.90;;;;;;5101848;28;20296;-71
2023/04/10 01:18:19;;;;;;;4.65;4.35;;;7.70;99.90;;;;;;5101441;28;20586;-73
2023/04/10 01:20:46;;;;;;;4.35;4.05;;;7.70;99.90;;;;;;5101084;28;20193;-76
2023/04/10 01:23:35;;;;;;;4.07;3.78;;;7.70;99.90;;;;;;5098952;28;20302;-71
2023/04/10 01:26:04;;;;;;;3.90;3.70;;;7.60;99.90;;;;;;5102058;28;20671;-72
2023/04/10 01:28:54;;;;;;;4.70;4.40;;;7.60;99.90;;;;;;5099769;28;21866;-73
2023/04/10 01:31:29;;;;;;;4.00;3.70;;;7.60;99.90;;;;;;5099665;28;20288;-73
2023/04/10 01:34:00;;;;;;;4.55;4.20;;;7.50;99.90;;;;;;5100650;28;20201;-71
2023/04/10 01:36:30;;;;;;;4.32;4.03;;;7.50;99.90;;;;;;5100110;28;20202;-72
2023/04/10 01:38:58;;;;;;;4.13;3.92;;;7.50;99.90;;;;;;5102101;28;20718;-71
2023/04/10 01:41:27;;;;;;;3.90;3.70;;;7.50;99.90;;;;;;5101552;28;20197;-73
2023/04/10 01:43:57;;;;;;;3.88;3.58;;;7.50;99.90;;;;;;5102663;28;20242;-70
2023/04/10 01:46:26;;;;;;;3.92;3.63;;;7.50;99.90;;;;;;5100758;28;20270;-73
2023/04/10 01:48:54;;;;;;;4.20;3.90;;;7.50;99.90;;;;;;5099220;28;20253;-76
2023/04/10 01:51:23;;;;;;;4.32;4.03;;;7.50;99.90;;;;;;5099105;28;20196;-73
2023/04/10 01:53:51;;;;;;;4.10;3.80;;;7.50;99.90;;;;;;5099141;28;20200;-71
2023/04/10 01:56:19;;;;;;;3.60;3.40;;;7.40;99.90;;;;;;5098316;28;20198;-72
2023/04/10 01:58:46;;;;;;;3.50;3.30;;;7.40;99.90;;;;;;5100364;28;20278;-72
2023/04/10 02:01:20;;;;;;;3.90;3.60;;;7.40;99.90;;;;;;5098700;28;21001;-70
2023/04/10 02:03:47;;;;;;;4.18;3.88;;;7.40;99.90;;;;;;5101342;28;20230;-71
2023/04/10 02:06:21;;;;;;;4.05;3.75;;;7.40;99.90;;;;;;5103892;28;20636;-73
2023/04/10 02:08:53;;;;;;;3.78;3.55;;;7.30;99.90;;;;;;5104971;28;20242;-73
2023/04/10 02:11:33;;;;;;;3.83;3.60;;;7.30;99.90;;;;;;5102882;28;20592;-73
2023/04/10 02:14:04;;;;;;;3.65;3.45;;;7.20;99.90;;;;;;5105405;28;20193;-72
2023/04/10 02:16:34;;;;;;;3.88;3.60;;;7.20;99.90;;;;;;5102720;28;20204;-71
2023/04/10 02:19:02;;;;;;;4.28;3.97;;;7.10;99.90;;;;;;5101775;28;20273;-74
2023/04/10 02:21:29;;;;;;;4.20;3.90;;;7.10;99.90;;;;;;5104096;28;20200;-73
2023/04/10 02:23:58;;;;;;;4.88;4.57;;;7.10;99.90;;;;;;5103918;28;20311;-73
2023/04/10 02:26:25;;;;;;;4.47;4.18;;;7.10;99.90;;;;;;5106217;28;20277;-72
2023/04/10 02:28:52;;;;;;;4.55;4.25;;;7.00;99.90;;;;;;5105805;28;20260;-71
2023/04/10 02:31:19;;;;;;;4.20;3.90;;;7.00;99.90;;;;;;5105627;28;20242;-76
2023/04/10 02:33:47;;;;;;;4.53;4.22;;;6.90;99.90;;;;;;5105027;28;20193;-72
2023/04/10 02:36:14;;;;;;;3.83;3.53;;;6.90;99.90;;;;;;5104469;28;20578;-72
2023/04/10 02:38:41;;;;;;;4.00;3.70;;;7.00;99.90;;;;;;5102305;28;20264;-71
2023/04/10 02:41:08;;;;;;;4.50;4.20;;;7.00;99.90;;;;;;5103820;28;20232;-72
2023/04/10 02:43:35;;;;;;;4.00;3.70;;;7.00;99.90;;;;;;5105124;28;20271;-72
2023/04/10 02:46:02;;;;;;;4.47;4.18;;;7.00;99.90;;;;;;5103369;28;20701;-71
2023/04/10 02:48:29;;;;;;;4.03;3.72;;;6.90;99.90;;;;;;5101797;28;20218;-72
2023/04/10 02:50:58;;;;;;;4.25;3.95;;;6.90;99.90;;;;;;5102180;28;20204;-73
2023/04/10 02:53:25;;;;;;;3.92;3.72;;;6.90;99.90;;;;;;5099732;28;20201;-74
2023/04/10 02:55:53;;;;;;;4.55;4.25;;;6.90;99.90;;;;;;5103428;28;20196;-74
2023/04/10 02:58:20;;;;;;;3.80;3.60;;;6.90;99.90;;;;;;5104522;28;20718;-72
2023/04/10 03:00:49;;;;;;;4.25;3.95;;;6.90;99.90;;;;;;5102288;28;20250;-70
2023/04/10 03:03:17;;;;;;;4.20;3.90;;;6.90;99.90;;;;;;5100724;28;20251;-70
2023/04/10 03:05:45;;;;;;;3.90;3.60;;;6.80;99.90;;;;;;5104088;28;20246;-72
2023/04/10 03:08:14;;;;;;;4.50;4.10;;;6.80;99.90;;;;;;5101546;28;20292;-72
2023/04/10 03:10:42;;;;;;;4.28;3.97;;;6.80;99.90;;;;;;5103058;28;20295;-72
2023/04/10 03:13:09;;;;;;;4.20;3.92;;;6.80;99.90;;;;;;5099927;28;20459;-74
2023/04/10 03:15:36;;;;;;;4.68;4.25;;;6.80;99.90;;;;;;5101592;28;20208;-72
2023/04/10 03:18:04;;;;;;;4.40;4.10;;;6.80;99.90;;;;;;5099490;28;20225;-71
2023/04/10 03:20:31;;;;;;;4.15;3.85;;;6.80;99.90;;;;;;5101746;28;20216;-71
2023/04/10 03:22:58;;;;;;;4.55;4.20;;;6.70;99.90;;;;;;5101995;28;20205;-71
2023/04/10 03:25:27;;;;;;;4.88;4.57;;;6.70;99.90;;;;;;5103657;28;20240;-71
2023/04/10 03:27:54;;;;;;;3.97;3.67;;;6.60;99.90;;;;;;5102289;28;20218;-70
2023/04/10 03:30:21;;;;;;;4.43;4.13;;;6.60;99.90;;;;;;5103066;28;20216;-71
2023/04/10 03:32:48;;;;;;;4.13;3.83;;;6.60;99.90;;;;;;5102993;28;20236;-71
2023/04/10 03:35:15;;;;;;;4.35;4.05;;;6.60;99.90;;;;;;5101470;27;20320;-70
2023/04/10 03:37:42;;;;;;;4.10;3.80;;;6.50;99.90;;;;;;5101189;28;20281;-70
2023/04/10 03:40:10;;;;;;;4.65;4.35;;;6.50;99.90;;;;;;5102039;28;20225;-71
2023/04/10 03:42:39;;;;;;;4.50;4.20;;;6.50;99.90;;;;;;5101406;28;20617;-70
2023/04/10 03:45:06;;;;;;;4.47;4.18;;;6.40;99.90;;;;;;5105129;28;20228;-72
2023/04/10 03:47:34;;;;;;;4.20;3.90;;;6.40;99.90;;;;;;5101398;28;20224;-70
2023/04/10 03:50:01;;;;;;;4.20;3.90;;;6.40;99.90;;;;;;5103075;28;20287;-72
2023/04/10 03:52:28;;;;;;;4.25;3.95;;;6.40;99.90;;;;;;5100899;28;20236;-70
2023/04/10 03:54:55;;;;;;;3.95;3.75;;;6.30;99.90;;;;;;5102274;28;20201;-70
2023/04/10 03:57:22;;;;;;;4.40;4.10;;;6.30;99.90;;;;;;5103650;28;20313;-71
2023/04/10 03:59:51;;;;;;;4.47;4.18;;;6.30;99.90;;;;;;5103374;28;20697;-70
2023/04/10 04:02:17;;;;;;;4.50;4.20;;;6.30;99.90;;;;;;5102681;28;20292;-70
2023/04/10 04:04:45;;;;;;;4.43;4.13;;;6.20;99.90;;;;;;5104127;28;20307;-70
2023/04/10 04:07:12;;;;;;;4.28;3.97;;;6.20;99.90;;;;;;5102029;28;20776;-70
2023/04/10 04:09:39;;;;;;;4.10;3.80;;;6.20;99.90;;;;;;5104704;28;20274;-70
2023/04/10 04:12:07;;;;;;;3.92;3.72;;;6.20;99.90;;;;;;5101958;28;20234;-71
2023/04/10 04:14:34;;;;;;;4.13;3.92;;;6.10;99.90;;;;;;5102138;27;20189;-70
2023/04/10 04:17:02;;;;;;;3.67;3.47;;;6.10;99.90;;;;;;5100301;28;20257;-71
2023/04/10 04:19:29;;;;;;;4.40;4.05;;;6.10;99.90;;;;;;5100833;28;20193;-72
2023/04/10 04:21:56;;;;;;;4.07;3.78;;;6.10;99.90;;;;;;5099612;28;20304;-71
2023/04/10 04:24:23;;;;;;;4.05;3.75;;;6.00;99.90;;;;;;5101262;28;20769;-71
2023/04/10 04:26:50;;;;;;;4.32;4.03;;;6.00;99.90;;;;;;5102833;28;20245;-70
2023/04/10 04:29:17;;;;;;;4.25;3.95;;;6.00;99.90;;;;;;5101607;28;20234;-71
2023/04/10 04:31:44;;;;;;;3.80;3.60;;;6.00;99.90;;;;;;5098296;28;20289;-71
2023/04/10 04:34:12;;;;;;;4.25;3.95;;;6.00;99.90;;;;;;5101927;28;20254;-70
2023/04/10 04:36:39;;;;;;;4.43;4.13;;;5.90;99.90;;;;;;5101367;28;20200;-70
2023/04/10 04:39:06;;;;;;;4.35;4.05;;;5.90;99.90;;;;;;5099011;28;20205;-70
2023/04/10 04:41:33;;;;;;;4.22;3.83;;;5.90;99.90;;;;;;5103625;28;20886;-70
2023/04/10 04:44:01;;;;;;;4.55;4.25;;;5.90;99.90;;;;;;5102022;28;20229;-70
2023/04/10 04:46:28;;;;;;;3.65;3.45;;;5.90;99.90;;;;;;5100564;28;20791;-70
2023/04/10 04:48:55;;;;;;;4.22;3.92;;;5.90;99.90;;;;;;5102647;28;20313;-69
2023/04/10 04:51:24;;;;;;;4.30;4.00;;;5.90;99.90;;;;;;5103815;28;20228;-70
2023/04/10 04:53:51;;;;;;;4.35;4.05;;;5.90;99.90;;;;;;5099833;28;20250;-71
2023/04/10 04:56:18;;;;;;;4.30;3.90;;;5.90;99.90;;;;;;5102391;28;20766;-72
2023/04/10 04:58:45;;;;;;;3.83;3.55;;;5.90;99.90;;;;;;5100950;28;20237;-70
2023/04/10 05:01:12;;;;;;;3.58;3.38;;;5.90;99.90;;;;;;5101890;28;20740;-70
2023/04/10 05:03:39;;;;;;;4.07;3.78;;;5.90;99.90;;;;;;5103136;28;20201;-70
2023/04/10 05:06:06;;;;;;;3.78;3.50;;;5.90;99.90;;;;;;5100111;28;20229;-70
2023/04/10 05:08:35;;;;;;;3.67;3.47;;;5.90;99.90;;;;;;5101665;28;20217;-72
2023/04/10 05:11:02;;;;;;;3.97;3.67;;;5.90;99.90;;;;;;5097929;28;20305;-70
2023/04/10 05:13:29;;;;;;;3.60;3.40;;;5.90;99.90;;;;;;5103988;28;20481;-71
2023/04/10 05:15:55;;;;;;;3.17;2.97;;;5.90;99.90;;;;;;5100335;28;20655;-70
2023/04/10 05:18:22;;;;;;;3.53;3.22;;;5.90;99.90;;;;;;5099655;28;20225;-71
2023/04/10 05:20:50;;;;;;;3.90;3.60;;;6.10;99.90;;;;;;5099558;28;20749;-72
2023/04/10 05:23:17;;;;;;;3.40;3.20;;;6.50;99.90;;;;;;5101687;28;20201;-70
2023/04/10 05:25:45;;;;;;;3.70;3.50;;;6.80;99.90;;;;;;5100510;28;20277;-71
2023/04/10 05:28:12;;;;;;;3.45;3.25;;;7.20;99.90;;;;;;5103097;28;20710;-72
2023/04/10 05:30:39;;;;;;;3.45;3.25;;;7.50;99.90;;;;;;5102680;28;20207;-71
2023/04/10 05:33:06;;;;;;;3.30;3.10;;;7.80;99.90;;;;;;5102001;28;20685;-72
2023/04/10 05:35:33;;;;;;;3.65;3.40;;;8.10;99.90;;;;;;5100100;28;20284;-73
2023/04/10 05:38:00;;;;;;;3.33;3.13;;;8.40;99.90;;;;;;5104862;28;20221;-72
2023/04/10 05:40:28;;;;;;;3.30;3.10;;;8.60;99.90;;;;;;5105333;28;20193;-71
2023/04/10 05:42:56;;;;;;;3.08;2.83;;;8.70;99.90;;;;;;5107061;28;20252;-74
2023/04/10 05:45:23;;;;;;;3.05;2.85;;;8.90;99.90;;;;;;5106250;28;20248;-72
2023/04/10 05:47:50;;;;;;;3.17;2.97;;;9.00;99.90;;;;;;5102807;28;20824;-71
2023/04/10 05:50:17;;;;;;;2.72;2.63;;;9.20;99.90;;;;;;5104535;28;20204;-74
2023/04/10 05:52:45;;;;;;;3.53;3.22;;;9.50;99.90;;;;;;5107437;28;20192;-72
2023/04/10 05:55:12;;;;;;;2.90;2.70;;;9.70;99.90;;;;;;5122333;28;20218;-72
2023/04/10 05:57:39;;;;;;;2.70;2.60;;;10.00;99.90;;;;;;5117635;28;20243;-71
2023/04/10 06:00:09;;;;;;;3.13;2.92;;;10.00;99.90;;;;;;5119408;28;20201;-71
2023/04/10 06:02:36;;;;;;;3.45;3.03;;;10.10;99.90;;;;;;5120937;28;20255;-73
2023/04/10 06:05:03;;;;;;;3.55;3.25;;;10.10;99.90;;;;;;5124668;28;20243;-75
2023/04/10 06:07:32;;;;;;;3.58;3.28;;;10.00;99.90;;;;;;5119042;27;20221;-76
2023/04/10 06:09:58;;;;;;;3.10;2.90;;;10.10;99.90;;;;;;5123601;28;20265;-74
2023/04/10 06:12:25;;;;;;;2.80;2.70;;;10.20;99.90;;;;;;5125451;28;20197;-75
2023/04/10 06:14:52;;;;;;;3.28;3.08;;;10.40;99.90;;;;;;5124152;28;20192;-78
2023/04/10 06:17:22;;;;;;;3.05;2.75;;;10.60;99.90;;;;;;5125425;28;20297;-73
2023/04/10 06:19:49;;;;;;;2.80;2.60;;;11.00;99.90;;;;;;5121233;28;20260;-74
2023/04/10 06:22:16;;;;;;;2.80;2.60;;;11.20;99.90;;;;;;5122242;28;20208;-72
2023/04/10 06:24:43;;;;;;;3.25;2.95;;;11.10;99.90;;;;;;5113701;28;20275;-71
2023/04/10 06:27:11;;;;;;;4.07;3.30;;;11.10;99.90;;;;;;5109759;28;20252;-72
2023/04/10 06:29:38;;;;;;;3.78;3.45;;;11.10;99.90;;;;;;5109649;28;20196;-73
2023/04/10 06:32:05;;;;;;;3.65;3.35;;;11.00;99.90;;;;;;5104188;28;20360;-71
2023/04/10 06:34:33;;;;;;;3.63;3.33;;;11.00;99.90;;;;;;5102018;28;20238;-71
2023/04/10 06:37:00;;;;;;;3.00;2.70;;;11.00;99.90;;;;;;5104917;28;20225;-71
2023/04/10 06:39:27;;;;;;;3.42;3.13;;;11.30;99.90;;;;;;5104626;28;20271;-71
2023/04/10 06:41:55;;;;;;;3.30;3.00;;;11.60;99.90;;;;;;5105754;28;20205;-72
2023/04/10 06:44:21;;;;;;;3.15;2.95;;;11.90;99.90;;;;;;5102776;28;20281;-73
2023/04/10 06:46:48;;;;;;;3.47;3.17;;;11.90;99.90;;;;;;5104807;28;20245;-72
2023/04/10 06:49:15;;;;;;;2.78;2.58;;;12.00;99.90;;;;;;5104851;28;20244;-72
2023/04/10 06:51:47;;;;;;;3.45;3.22;;;12.10;99.90;;;;;;5105063;28;20276;-70
2023/04/10 06:54:14;;;;;;;3.08;2.88;;;12.10;99.90;;;;;;5103288;28;20201;-70
2023/04/10 06:56:41;;;;;;;5.50;2.70;;;12.10;99.90;;;;;;5102801;28;20851;-70
2023/04/10 06:59:08;;;;;;;3.22;3.03;;;12.00;99.90;;;;;;5108841;28;20229;-71
2023/04/10 07:01:35;;;;;;;2.97;2.78;;;12.00;99.90;;;;;;5108113;28;20197;-70
2023/04/10 07:04:02;;;;;;;3.00;2.80;;;12.10;99.90;;;;;;5113794;28;20200;-70
2023/04/10 07:06:30;;;;;;;3.30;3.10;;;12.10;99.90;;;;;;5111496;28;20699;-71
2023/04/10 07:08:58;;;;;;;3.13;2.75;;;12.10;99.90;;;;;;5103832;28;20229;-70
2023/04/10 07:11:25;;;;;;;3.28;3.08;;;12.10;99.90;;;;;;5102314;28;20288;-70
2023/04/10 07:13:57;;;;;;;2.83;2.67;;;12.20;99.90;;;;;;5106005;28;20250;-70
2023/04/10 07:16:24;;;;;;;3.05;2.85;;;12.30;99.90;;;;;;5104456;28;20197;-70
2023/04/10 07:18:51;;;;;;;3.08;2.78;;;12.50;99.90;;;;;;5101250;28;20240;-70
2023/04/10 07:21:18;;;;;;;2.80;2.60;;;12.70;99.90;;;;;;5105851;28;20197;-70
2023/04/10 07:23:46;;;;;;;3.20;2.90;;;12.80;99.90;;;;;;5104034;28;20729;-72
2023/04/10 07:26:14;;;;;;;3.00;2.80;;;13.10;99.90;;;;;;5107043;28;20241;-70
2023/04/10 07:28:41;;;;;;;3.15;2.90;;;13.20;99.90;;;;;;5104915;28;20927;-70
2023/04/10 07:31:09;;;;;;;2.95;2.75;;;13.20;99.90;;;;;;5104505;28;20287;-70
2023/04/10 07:33:36;;;;;;;2.90;2.70;;;13.20;99.90;;;;;;5101307;28;20238;-71
2023/04/10 07:36:04;;;;;;;2.63;2.35;;;13.30;99.90;;;;;;5103567;28;20679;-70
2023/04/10 07:38:31;;;;;;;3.00;2.80;;;13.40;99.90;;;;;;5100225;28;20316;-70
2023/04/10 07:40:59;;;;;;;3.00;2.80;;;13.30;99.90;;;;;;5103505;28;20229;-68
2023/04/10 07:43:27;;;;;;;2.70;2.50;;;13.40;99.90;;;;;;5103644;28;20206;-71
2023/04/10 07:45:54;;;;;;;2.88;2.67;;;13.50;99.90;;;;;;5100342;28;20854;-71
2023/04/10 07:48:21;;;;;;;2.70;2.50;;;13.60;99.90;;;;;;5104304;28;20347;-71
2023/04/10 07:51:18;;;;;;;2.95;2.75;;;13.50;99.90;;;;;;5099922;28;20312;-72
2023/04/10 07:53:45;;;;;;;2.80;2.60;;;13.70;99.90;;;;;;5103362;28;20201;-70
2023/04/10 07:56:17;;;;;;;2.88;2.50;;;13.80;99.90;;;;;;5105348;28;20456;-72
2023/04/10 07:58:45;;;;;;;2.95;2.67;;;13.90;99.90;;;;;;5102845;28;20225;-70
2023/04/10 08:01:12;;;;;;;2.92;2.72;;;14.00;99.90;;;;;;5102392;28;20292;-70
2023/04/10 08:03:40;;;;;;;2.58;2.40;;;14.20;99.90;;;;;;5101535;28;20197;-70
2023/04/10 08:06:09;;;;;;;2.58;2.47;;;14.50;99.90;;;;;;5099935;28;20729;-69
2023/04/10 08:08:37;;;;;;;3.20;2.90;;;14.50;99.90;;;;;;5103851;28;20225;-70
2023/04/10 08:11:07;;;;;;;2.60;2.40;;;14.70;99.90;;;;;;5103261;28;20206;-70
2023/04/10 08:13:34;;;;;;;3.35;3.15;;;14.80;99.90;;;;;;5103543;28;20201;-70
2023/04/10 08:16:02;;;;;;;2.78;2.58;;;14.70;99.90;;;;;;5100102;28;20219;-70
2023/04/10 08:18:29;;;;;;;2.80;2.60;;;14.50;99.50;;;;;;5103965;28;20225;-70
2023/04/10 08:20:56;;;;;;;3.00;2.80;;;14.60;99.20;;;;;;5102039;28;20232;-74
2023/04/10 08:23:22;;;;;;;2.97;2.50;;;14.80;98.20;;;;;;5102285;28;20229;-71
2023/04/10 08:25:50;;;;;;;2.92;2.67;;;15.10;97.10;;;;;;5102029;28;20208;-70
2023/04/10 08:28:18;;;;;;;3.13;2.83;;;15.10;97.50;;;;;;5101420;28;20300;-70
2023/04/10 08:30:45;;;;;;;2.58;2.28;;;15.30;97.20;;;;;;5102494;28;20215;-71
2023/04/10 08:33:13;;;;;;;2.65;2.55;;;15.30;96.70;;;;;;5103143;28;20717;-70
2023/04/10 08:35:40;;;;;;;3.17;2.97;;;15.40;96.60;;;;;;5101486;28;20201;-71
2023/04/10 08:38:07;;;;;;;2.95;2.75;;;15.40;96.40;;;;;;5101188;28;20764;-71
2023/04/10 08:40:37;;;;;;;2.80;2.60;;;15.40;96.50;;;;;;5103931;28;20337;-71
2023/04/10 08:43:04;;;;;;;2.50;2.30;;;15.30;96.90;;;;;;5098833;28;20232;-70
2023/04/10 08:45:31;;;;;;;2.75;2.55;;;15.40;96.60;;;;;;5103688;28;20216;-70
2023/04/10 08:48:02;;;;;;;2.88;2.67;;;15.30;96.50;;;;;;5100783;28;20212;-70
2023/04/10 08:50:34;;;;;;;3.05;2.63;;;15.50;96.60;;;;;;5100657;28;20219;-70
2023/04/10 08:53:05;;;;;;;2.83;2.63;;;15.60;95.80;;;;;;5102135;28;20206;-70
2023/04/10 08:55:32;;;;;;;3.30;3.08;;;15.30;96.10;;;;;;5100788;28;20225;-74
2023/04/10 08:57:59;;;;;;;3.10;2.90;;;15.30;95.70;;;;;;5102620;28;20247;-70
2023/04/10 09:00:28;;;;;;;2.92;2.70;;;15.40;96.40;;;;;;5103309;28;20258;-70
2023/04/10 09:02:56;;;;;;;3.15;2.95;;;15.70;95.50;;;;;;5099022;28;20720;-70
2023/04/10 09:05:25;;;;;;;3.10;2.90;;;15.90;94.50;;;;;;5099101;28;20277;-71
2023/04/10 09:07:53;;;;;;;2.90;2.60;;;16.00;95.10;;;;;;5099963;28;20231;-70
2023/04/10 09:10:20;;;;;;;2.88;2.67;;;16.10;94.60;;;;;;5099397;28;20258;-70
2023/04/10 09:12:48;;;;;;;2.83;2.63;;;16.20;94.30;;;;;;5101000;28;20605;-70
2023/04/10 09:15:15;;;;;;;2.83;2.63;;;16.40;95.00;;;;;;5102513;28;20284;-71
2023/04/10 09:17:56;;;;;;;2.83;2.63;;;16.70;94.50;;;;;;5100731;28;20312;-70
2023/04/10 09:20:25;;;;;;;2.88;2.67;;;16.60;94.90;;;;;;5100291;28;20671;-73
2023/04/10 09:22:53;;;;;;;4.82;2.90;;;16.80;94.60;;;;;;5099787;28;20209;-71
2023/04/10 09:25:32;;;;;;;2.50;2.40;;;16.80;93.90;;;;;;5101213;28;20270;-70
2023/04/10 09:28:05;;;;;;;2.60;2.40;;;16.70;93.30;;;;;;5099756;28;20785;-71
2023/04/10 09:30:36;;;;;;;2.72;2.53;;;16.60;94.70;;;;;;5101286;28;20232;-71
2023/04/10 09:33:04;;;;;;;2.60;2.45;;;16.30;93.80;;;;;;5099600;28;20246;-73
2023/04/10 09:35:38;;;;;;;2.97;2.78;;;16.40;93.70;;;;;;5098199;28;20210;-71
2023/04/10 09:38:16;;;;;;;2.70;2.50;;;16.60;93.70;;;;;;5099369;28;20217;-71
2023/04/10 09:40:44;;;;;;;3.15;2.30;;;16.50;93.00;;;;;;5098973;28;20265;-71
2023/04/10 09:43:22;;;;;;;2.17;2.08;;;16.80;93.30;;;;;;5100534;28;20800;-70
2023/04/10 09:45:50;;;;;;;2.40;2.20;;;17.10;90.80;;;;;;5098807;28;20229;-70
2023/04/10 09:48:18;;;;;;;2.20;2.10;;;17.20;90.60;;;;;;5099622;28;20220;-70
2023/04/10 09:50:45;;;;;;;5.07;2.72;;;17.20;89.00;;;;;;5097220;28;20200;-70
2023/04/10 09:53:14;;;;;;;2.30;2.10;;;17.30;89.00;;;;;;5093641;28;20321;-70
2023/04/10 09:55:43;;;;;;;2.10;2.00;;;17.30;86.90;;;;;;5097982;28;20246;-70
2023/04/10 09:58:11;;;;;;;2.53;2.33;;;17.30;88.50;;;;;;5094620;28;20248;-72
2023/04/10 10:00:41;;;;;;;2.13;2.03;;;17.30;85.10;;;;;;5091754;28;20331;-71
2023/04/10 10:03:10;;;;;;;2.10;2.00;;;17.40;85.50;;;;;;5098387;28;20228;-70
2023/04/10 10:05:39;;;;;;;2.45;2.30;;;17.40;86.10;;;;;;5097494;28;20196;-69
2023/04/10 10:08:06;;;;;;;2.42;2.30;;;17.40;85.10;;;;;;5097435;28;20244;-71
2023/04/10 10:10:34;;;;;;;2.47;2.28;;;17.20;84.90;;;;;;5097594;28;20232;-71
2023/04/10 10:13:03;;;;;;;2.75;2.55;;;17.30;84.60;;;;;;5101911;28;20847;-71
2023/04/10 10:15:37;;;;;;;4.10;2.67;;;17.10;85.20;;;;;;5097399;28;20200;-71
2023/04/10 10:18:10;;;;;;;2.45;2.25;;;17.40;84.80;;;;;;5098998;28;20224;-71
2023/04/10 10:20:39;;;;;;;2.38;2.20;;;17.70;86.10;;;;;;5096885;28;20193;-71
2023/04/10 10:23:07;;;;;;;2.35;2.22;;;17.90;84.30;;;;;;5100388;28;20199;-71
2023/04/10 10:25:35;;;;;;;2.20;2.03;;;17.70;83.40;;;;;;5104519;28;20201;-71
2023/04/10 10:28:04;;;;;;;2.28;2.17;;;17.70;83.70;;;;;;5103443;28;20227;-72
2023/04/10 10:30:32;;;;;;;2.28;2.17;;;17.50;82.10;;;;;;5106372;28;20221;-70
2023/04/10 10:33:00;;;;;;;2.25;2.13;;;17.40;83.60;;;;;;5111289;28;20203;-72
2023/04/10 10:35:27;;;;;;;2.50;2.30;;;17.40;83.60;;;;;;5118567;28;20230;-72
2023/04/10 10:37:55;;;;;;;2.28;2.17;;;17.40;83.20;;;;;;5115779;28;20501;-71
2023/04/10 10:40:28;;;;;;;2.08;1.95;;;17.40;82.10;;;;;;5107675;28;20200;-72
2023/04/10 10:43:00;;;;;;;2.15;2.03;;;17.40;81.70;;;;;;5105018;28;20287;-71
2023/04/10 10:45:37;;;;;;;1.98;1.88;;;17.40;79.80;;;;;;5104322;28;20226;-71
2023/04/10 10:48:05;;;;;;;1.90;1.80;;;17.30;79.00;;;;;;5099809;28;20240;-72
2023/04/10 10:50:51;;;;;;;2.20;2.08;;;17.30;77.90;;;;;;5105028;28;20204;-73
2023/04/10 10:53:36;;;;;;;2.03;1.92;;;17.20;78.80;;;;;;5103700;28;20238;-72
2023/04/10 10:56:35;;;;;;;2.00;1.90;;;17.20;79.50;;;;;;5102908;28;20216;-71
2023/04/10 10:59:02;;;;;;;1.90;1.80;;;17.30;80.10;;;;;;5100237;28;20232;-71
2023/04/10 11:01:30;;;;;;;2.10;2.00;;;17.40;78.40;;;;;;5103059;28;20197;-71
2023/04/10 11:03:58;;;;;;;1.80;1.70;;;17.60;76.10;;;;;;5102287;28;20474;-71
2023/04/10 11:06:53;;;;;;;1.80;1.70;;;17.80;77.20;;;;;;5099775;28;20245;-71
2023/04/10 11:09:48;;;;;;;1.80;1.70;;;18.00;73.10;;;;;;5104408;28;20285;-71
2023/04/10 11:12:16;;;;;;;2.65;1.75;;;18.00;72.30;;;;;;5091928;28;20203;-71
2023/04/10 11:14:44;;;;;;;1.52;1.42;;;18.10;70.20;;;;;;5102677;28;20718;-71
2023/04/10 11:17:36;;;;;;;1.60;1.50;;;18.10;72.20;;;;;;5101488;28;20209;-72
2023/04/10 11:20:03;;;;;;;1.73;1.63;;;18.20;70.70;;;;;;5102860;28;20615;-71
2023/04/10 11:22:30;;;;;;;1.83;1.73;;;18.30;71.00;;;;;;5103726;28;20209;-71
2023/04/10 11:25:01;;;;;;;1.92;1.83;;;18.30;68.70;;;;;;5094893;28;20200;-71
2023/04/10 11:27:45;;;;;;;1.88;1.77;;;18.20;69.50;;;;;;5099767;28;20216;-71
2023/04/10 11:30:33;;;;;;;1.73;1.63;;;18.30;70.20;;;;;;5097268;28;20201;-71
2023/04/10 11:33:02;;;;;;;1.60;1.50;;;18.30;67.20;;;;;;5095935;28;20607;-71
2023/04/10 11:35:31;;;;;;;1.80;1.70;;;18.40;67.00;;;;;;5099148;28;20273;-71
2023/04/10 11:38:15;;;;;;;1.60;1.50;;;18.40;65.80;;;;;;5097339;28;20296;-71
2023/04/10 11:40:56;;;;;;;1.70;1.60;;;18.30;63.90;;;;;;5098893;28;20198;-71
2023/04/10 11:43:23;;;;;;;1.75;1.65;;;18.40;65.40;;;;;;5100415;28;20262;-71
2023/04/10 11:45:50;;;;;;;1.75;1.65;;;18.50;66.60;;;;;;5095539;28;20223;-70
2023/04/10 11:48:18;;;;;;;1.90;1.80;;;18.80;65.00;;;;;;5096069;28;20217;-71
2023/04/10 11:50:45;;;;;;;1.70;1.60;;;18.60;64.50;;;;;;5094692;28;20233;-69
2023/04/10 11:53:20;;;;;;;1.73;1.63;;;18.80;64.70;;;;;;5102944;28;20630;-71
2023/04/10 11:55:47;;;;;;;1.50;1.50;;;18.90;63.00;;;;;;5100941;28;20677;-71
2023/04/10 11:58:24;;;;;;;1.50;1.40;;;19.00;62.40;;;;;;5103956;28;20217;-71
2023/04/10 12:00:58;;;;;;;1.45;1.35;;;18.90;59.70;;;;;;5099165;28;20205;-71
2023/04/10 12:03:38;;;;;;;1.60;1.50;;;19.00;59.80;;;;;;5108666;28;20477;-72
2023/04/10 12:06:08;;;;;;;1.38;1.38;;;19.00;59.80;;;;;;5097615;28;20208;-72
2023/04/10 12:08:36;;;;;;;1.42;1.33;;;19.00;59.60;;;;;;5096343;28;20224;-71
2023/04/10 12:11:03;;;;;;;1.52;1.33;;;18.90;58.40;;;;;;5088723;28;20846;-70
2023/04/10 12:13:31;;;;;;;1.48;1.38;;;19.00;59.60;;;;;;5098895;28;20649;-71
2023/04/10 12:15:59;;;;;;;1.30;1.20;;;19.20;60.10;;;;;;5094679;28;20228;-71
2023/04/10 12:18:27;;;;;;;1.27;1.17;;;19.40;60.10;;;;;;5098790;28;20219;-72
2023/04/10 12:20:57;;;;;;;1.10;1.10;;;19.50;59.30;;;;;;5094618;28;20320;-72
2023/04/10 12:23:25;;;;;;;1.00;1.00;;;19.60;57.80;;;;;;5100552;28;20205;-71
2023/04/10 12:25:52;;;;;;;1.20;1.20;;;19.60;57.10;;;;;;5093868;28;20204;-72
2023/04/10 12:28:20;;;;;;;1.08;1.08;;;19.70;56.40;;;;;;5092591;28;20747;-71
2023/04/10 12:30:48;;;;;;;1.20;1.20;;;20.00;57.30;;;;;;5095461;28;20226;-72
2023/04/10 12:33:22;;;;;;;1.05;1.05;;;20.10;57.30;;;;;;5099812;28;20228;-72
2023/04/10 12:35:50;;;;;;;1.20;1.20;;;20.10;55.80;;;;;;5097151;28;20238;-72
2023/04/10 12:38:35;;;;;;;1.38;1.30;;;20.40;56.40;;;;;;5094153;28;20221;-71
2023/04/10 12:41:03;;;;;;;1.20;1.20;;;20.60;53.80;;;;;;5100098;28;20192;-70
2023/04/10 12:43:32;;;;;;;1.00;1.00;;;20.40;53.70;;;;;;5102091;28;20772;-71
2023/04/10 12:45:59;;;;;;;1.45;1.10;;;20.40;54.00;;;;;;5119633;28;20292;-71
2023/04/10 12:48:26;;;;;;;1.05;1.05;;;20.50;55.10;;;;;;5121671;28;20213;-73
2023/04/10 12:50:53;;;;;;;1.42;1.33;;;20.40;54.30;;;;;;5124224;28;20201;-72
2023/04/10 12:53:21;;;;;;;1.10;1.10;;;20.40;52.90;;;;;;5125958;28;20208;-71
2023/04/10 12:55:58;;;;;;;1.08;1.08;;;20.30;53.00;;;;;;5118019;28;20201;-75
2023/04/10 12:58:27;;;;;;;1.48;1.38;;;20.20;51.90;;;;;;5121420;28;20297;-72
2023/04/10 13:00:55;;;;;;;1.45;1.30;;;20.10;53.00;;;;;;5118570;28;20261;-72